Time;durP1;ratioP1;P1;durP2;ratioP2;P2;SDS_P1;SDS_P2;PMS_P1;PMS_P2;Temp;Humidity;BMP_temperature;BMP_pressure;BME280_temperature;BME280_humidity;BME280_pressure;Samples;Min_cycle;Max_cycle;Signal;HPM_P1;HPM_P2
2022/09/12 00:00:07;;;;;;;12.23;5.95;;;;;;;13.92;89.73;101584.16;5026812;28;20021;-68
2022/09/12 00:02:33;;;;;;;11.95;6.43;;;;;;;13.88;88.85;101580.06;5026523;28;20025;-67
2022/09/12 00:04:59;;;;;;;15.20;7.28;;;;;;;13.69;90.31;101584.75;5024949;28;20085;-67
2022/09/12 00:07:24;;;;;;;9.20;6.53;;;;;;;13.73;90.01;101580.66;5026106;28;20025;-67
2022/09/12 00:09:49;;;;;;;10.75;6.85;;;;;;;13.66;89.97;101573.31;5030325;28;20029;-68
2022/09/12 00:12:15;;;;;;;9.15;6.40;;;;;;;13.62;90.30;101578.22;5031688;28;20025;-68
2022/09/12 00:14:40;;;;;;;15.93;7.65;;;;;;;13.65;90.37;101583.34;5031758;28;20049;-67
2022/09/12 00:17:05;;;;;;;14.05;6.55;;;;;;;13.67;89.71;101575.84;5030923;28;20063;-68
2022/09/12 00:19:31;;;;;;;10.35;5.97;;;;;;;13.64;89.84;101570.75;5030270;28;20013;-67
2022/09/12 00:21:56;;;;;;;14.25;7.28;;;;;;;13.54;89.20;101570.00;5030362;28;20033;-68
2022/09/12 00:24:22;;;;;;;12.07;7.22;;;;;;;13.46;90.41;101578.13;5030514;28;20075;-67
2022/09/12 00:26:48;;;;;;;12.07;6.82;;;;;;;13.40;91.14;101578.75;5031516;28;20099;-67
2022/09/12 00:29:18;;;;;;;9.10;6.13;;;;;;;13.23;92.64;101578.63;5031276;28;20041;-68
2022/09/12 00:31:44;;;;;;;10.75;6.13;;;;;;;13.40;91.39;101573.31;5026684;28;20037;-68
2022/09/12 00:34:10;;;;;;;10.93;6.68;;;;;;;13.45;90.63;101571.81;5030365;28;20025;-68
2022/09/12 00:36:36;;;;;;;13.55;6.65;;;;;;;13.38;90.04;101564.47;5030161;28;20060;-67
2022/09/12 00:39:02;;;;;;;14.43;6.78;;;;;;;13.38;89.88;101567.19;5029506;28;20476;-68
2022/09/12 00:41:33;;;;;;;9.73;6.47;;;;;;;13.37;89.37;101562.75;5030180;28;20021;-67
2022/09/12 00:44:03;;;;;;;7.03;5.40;;;;;;;13.40;89.36;101557.00;5030359;28;20025;-68
2022/09/12 00:46:44;;;;;;;10.63;5.95;;;;;;;13.36;89.59;101561.03;5026994;28;20302;-67
2022/09/12 00:49:38;;;;;;;8.32;6.07;;;;;;;13.29;89.53;101558.94;5035116;28;20051;-68
2022/09/12 00:52:10;;;;;;;13.65;6.07;;;;;;;13.29;89.80;101561.66;5013101;28;20030;-68
2022/09/12 00:54:44;;;;;;;;;;;;;;;13.28;89.65;101559.13;5031975;28;20028;-68
2022/09/12 00:57:13;;;;;;;9.40;6.75;;;;;;;13.28;89.38;101559.97;5030639;28;19909;-68
2022/09/12 00:59:49;;;;;;;11.77;6.13;;;;;;;13.27;89.23;101552.81;5030165;28;20382;-67
2022/09/12 01:02:15;;;;;;;14.05;5.55;;;;;;;13.15;88.95;101564.94;5031084;28;20021;-68
2022/09/12 01:04:42;;;;;;;14.07;6.13;;;;;;;13.05;89.82;101553.31;5029778;28;20028;-67
2022/09/12 01:07:07;;;;;;;11.40;6.70;;;;;;;13.08;89.68;101553.00;5029341;28;20026;-68
2022/09/12 01:09:34;;;;;;;14.60;7.80;;;;;;;13.10;89.39;101563.69;5030430;28;20068;-68
2022/09/12 01:12:00;;;;;;;12.90;7.32;;;;;;;13.12;89.90;101554.38;5030682;28;20028;-67
2022/09/12 01:14:27;;;;;;;12.15;6.95;;;;;;;13.11;89.99;101558.13;5030013;28;20091;-67
2022/09/12 01:16:52;;;;;;;8.15;5.97;;;;;;;12.98;90.53;101552.25;5030477;28;20241;-67
2022/09/12 01:19:50;;;;;;;9.88;6.85;;;;;;;13.08;90.70;101549.41;5030223;28;20017;-67
2022/09/12 01:22:49;;;;;;;9.50;7.15;;;;;;;13.07;90.60;101540.41;5028033;28;20026;-68
2022/09/12 01:25:41;;;;;;;13.38;6.80;;;;;;;13.02;90.34;101553.63;5021993;28;20025;-68
2022/09/12 01:28:23;;;;;;;;;;;;;;;13.05;90.08;101547.88;5006334;28;20053;-68
2022/09/12 01:31:06;;;;;;;8.63;5.83;;;;;;;13.02;89.45;101553.63;5029487;28;19959;-67
2022/09/12 01:33:56;;;;;;;;;;;;;;;12.95;89.93;101541.66;5030181;28;20406;-67
2022/09/12 01:36:33;;;;;;;10.18;6.82;;;;;;;12.91;89.70;101545.69;5030200;28;19913;-68
2022/09/12 01:39:19;;;;;;;11.85;7.45;;;;;;;12.87;89.62;101538.88;5028574;28;20033;-67
2022/09/12 01:41:58;;;;;;;12.02;8.10;;;;;;;12.75;89.73;101536.41;5029243;28;20517;-69
2022/09/12 01:44:43;;;;;;;9.02;6.43;;;;;;;12.77;89.59;101534.38;5029211;28;20045;-67
2022/09/12 01:47:26;;;;;;;10.52;6.88;;;;;;;12.80;89.54;101532.38;5028300;28;20036;-68
2022/09/12 01:50:06;;;;;;;8.48;6.25;;;;;;;12.81;89.67;101525.94;5026163;28;20180;-68
2022/09/12 01:53:05;;;;;;;11.95;6.90;;;;;;;12.73;89.06;101533.00;5029804;28;20028;-68
2022/09/12 01:55:35;;;;;;;11.45;6.40;;;;;;;12.67;90.09;101522.75;5028588;28;20025;-68
2022/09/12 01:58:08;;;;;;;11.98;7.13;;;;;;;12.64;90.32;101523.06;5028574;28;20073;-68
2022/09/12 02:00:44;;;;;;;12.50;8.60;;;;;;;12.66;90.48;101525.63;5030049;28;20072;-68
2022/09/12 02:03:14;;;;;;;12.75;7.93;;;;;;;12.60;90.44;101527.09;5028325;28;20021;-68
2022/09/12 02:05:55;;;;;;;11.73;7.28;;;;;;;12.61;90.34;101526.09;5029746;28;20028;-68
2022/09/12 02:08:36;;;;;;;15.15;6.28;;;;;;;12.59;90.28;101524.56;5028770;28;20028;-68
2022/09/12 02:11:10;;;;;;;16.25;7.75;;;;;;;12.44;89.93;101521.50;5029984;28;20069;-68
2022/09/12 02:13:43;;;;;;;9.75;7.35;;;;;;;12.42;90.98;101528.97;5028122;28;20052;-68
2022/09/12 02:16:15;;;;;;;9.23;7.07;;;;;;;12.38;90.70;101517.53;5029324;28;20112;-68
2022/09/12 02:18:49;;;;;;;10.10;7.25;;;;;;;12.44;90.58;101518.78;5029485;28;20053;-68
2022/09/12 02:21:18;;;;;;;14.45;6.97;;;;;;;12.44;90.45;101510.63;5020439;28;20097;-68
2022/09/12 02:23:50;;;;;;;9.63;6.40;;;;;;;12.40;90.19;101514.69;5029353;28;20013;-68
2022/09/12 02:26:20;;;;;;;;;;;;;;;12.39;90.38;101505.69;5029375;28;20021;-68
2022/09/12 02:28:46;;;;;;;12.80;7.40;;;;;;;12.37;90.02;101509.53;5029102;28;19916;-68
2022/09/12 02:31:15;;;;;;;10.60;7.35;;;;;;;12.33;90.27;101505.47;5027446;28;20021;-68
2022/09/12 02:33:53;;;;;;;11.82;7.53;;;;;;;12.32;90.10;101511.88;5028069;28;20449;-68
2022/09/12 02:36:33;;;;;;;13.25;7.22;;;;;;;12.25;89.86;101502.63;5027912;28;20040;-68
2022/09/12 02:38:59;;;;;;;11.00;6.72;;;;;;;12.16;90.12;101510.69;5027791;28;20029;-68
2022/09/12 02:41:25;;;;;;;12.02;6.70;;;;;;;12.15;90.31;101503.56;5028805;28;20026;-68
2022/09/12 02:43:52;;;;;;;11.45;7.32;;;;;;;12.17;90.54;101504.25;5028443;28;20030;-68
2022/09/12 02:46:22;;;;;;;9.55;6.25;;;;;;;12.18;90.51;101499.69;5027747;28;20018;-68
2022/09/12 02:48:47;;;;;;;12.60;6.32;;;;;;;12.15;90.66;101500.00;5027450;28;20025;-68
2022/09/12 02:51:13;;;;;;;19.48;6.72;;;;;;;12.13;90.74;101502.88;5027359;28;20501;-68
2022/09/12 02:53:40;;;;;;;8.90;6.55;;;;;;;12.14;90.48;101498.28;5027986;28;20437;-69
2022/09/12 02:56:13;;;;;;;7.88;5.97;;;;;;;12.13;90.70;101492.00;5036506;22;20424;-70
2022/09/12 02:58:38;;;;;;;8.35;6.75;;;;;;;12.12;90.28;101489.44;5025598;28;20025;-68
2022/09/12 03:01:10;;;;;;;8.45;5.57;;;;;;;12.08;90.06;101494.31;5027268;28;20060;-69
2022/09/12 03:03:53;;;;;;;9.23;6.70;;;;;;;12.03;90.72;101496.63;5028532;28;20029;-68
2022/09/12 03:06:44;;;;;;;10.43;6.28;;;;;;;12.04;90.38;101487.47;5027849;28;20026;-71
2022/09/12 03:09:45;;;;;;;8.60;6.25;;;;;;;11.91;90.33;101492.41;5028082;28;20021;-70
2022/09/12 03:12:20;;;;;;;10.85;5.72;;;;;;;11.79;90.63;101493.59;5031284;28;20026;-71
2022/09/12 03:15:07;;;;;;;8.02;6.07;;;;;;;11.68;91.52;101492.81;5028848;28;20043;-71
2022/09/12 03:17:40;;;;;;;8.30;5.20;;;;;;;11.71;90.99;101496.22;5028163;28;20021;-71
2022/09/12 03:20:36;;;;;;;9.95;6.35;;;;;;;11.79;90.91;101499.03;5028248;28;20013;-71
2022/09/12 03:23:08;;;;;;;9.75;6.15;;;;;;;11.89;90.91;101489.00;5027133;28;20023;-70
2022/09/12 03:25:42;;;;;;;10.32;5.35;;;;;;;11.87;90.59;101491.03;5028510;28;20029;-71
2022/09/12 03:28:12;;;;;;;13.43;6.75;;;;;;;11.84;90.93;101491.31;5028839;28;20026;-71
2022/09/12 03:30:50;;;;;;;13.35;5.28;;;;;;;11.69;91.15;101502.66;5028597;28;20024;-71
2022/09/12 03:33:20;;;;;;;10.43;5.10;;;;;;;11.63;91.66;101505.97;5020738;28;20017;-71
2022/09/12 03:35:47;;;;;;;7.25;5.43;;;;;;;11.73;91.41;101505.06;5027024;28;20037;-68
2022/09/12 03:38:13;;;;;;;16.38;6.75;;;;;;;11.82;91.12;101504.19;5027666;28;20037;-71
2022/09/12 03:40:39;;;;;;;10.48;6.13;;;;;;;11.82;91.95;101499.63;5028082;28;20075;-71
2022/09/12 03:43:06;;;;;;;15.65;7.32;;;;;;;11.78;91.50;101503.59;5029361;28;20025;-70
2022/09/12 03:45:32;;;;;;;8.63;5.38;;;;;;;11.72;90.98;101506.06;5027698;28;20030;-71
2022/09/12 03:47:58;;;;;;;11.85;5.80;;;;;;;11.67;91.35;101512.81;5026834;28;20470;-71
2022/09/12 03:50:23;;;;;;;11.00;5.68;;;;;;;11.63;91.58;101508.66;5028310;28;20100;-71
2022/09/12 03:52:49;;;;;;;7.55;5.35;;;;;;;11.69;90.96;101510.78;5029289;28;20051;-68
2022/09/12 03:55:15;;;;;;;11.43;6.63;;;;;;;11.80;91.41;101507.03;5027647;28;20025;-68
2022/09/12 03:57:40;;;;;;;12.80;6.00;;;;;;;11.85;91.05;101498.44;5029413;28;20021;-71
2022/09/12 04:00:07;;;;;;;9.05;6.55;;;;;;;11.82;91.03;101498.78;5030023;28;20044;-71
2022/09/12 04:02:33;;;;;;;10.40;6.30;;;;;;;11.75;90.73;101497.63;5028260;28;20029;-71
2022/09/12 04:04:59;;;;;;;10.27;7.03;;;;;;;11.69;90.86;101499.94;5027477;28;20037;-69
2022/09/12 04:07:24;;;;;;;9.68;6.47;;;;;;;11.45;92.42;101507.75;5027567;28;20029;-69
2022/09/12 04:09:49;;;;;;;9.95;6.47;;;;;;;11.45;92.74;101507.75;5028696;28;20041;-69
2022/09/12 04:12:15;;;;;;;15.32;7.63;;;;;;;11.46;92.57;101498.59;5027916;28;20522;-68
2022/09/12 04:14:40;;;;;;;8.25;6.45;;;;;;;11.42;93.06;101513.47;5029288;28;20121;-69
2022/09/12 04:17:06;;;;;;;11.00;7.20;;;;;;;11.57;92.58;101494.84;5028097;28;20438;-68
2022/09/12 04:19:32;;;;;;;13.25;6.85;;;;;;;11.60;92.09;101500.81;5027701;28;20048;-69
2022/09/12 04:21:57;;;;;;;12.38;6.38;;;;;;;11.60;91.35;101495.41;5027788;28;20036;-68
2022/09/12 04:24:22;;;;;;;13.32;6.85;;;;;;;11.50;91.73;101505.44;5027735;28;20018;-68
2022/09/12 04:26:48;;;;;;;11.68;6.85;;;;;;;11.43;92.07;101498.91;5027640;28;20041;-71
2022/09/12 04:29:16;;;;;;;7.20;5.75;;;;;;;11.32;92.39;101507.22;5028800;28;20021;-69
2022/09/12 04:31:42;;;;;;;11.20;7.28;;;;;;;11.41;92.21;101495.50;5029172;28;20025;-70
2022/09/12 04:34:08;;;;;;;13.00;7.00;;;;;;;11.36;91.42;101493.22;5028903;28;20052;-69
2022/09/12 04:36:34;;;;;;;14.68;8.20;;;;;;;11.43;91.57;101490.78;5026691;28;20061;-69
2022/09/12 04:39:00;;;;;;;16.25;8.18;;;;;;;11.44;93.02;101494.34;5028971;28;20026;-69
2022/09/12 04:41:29;;;;;;;14.38;9.73;;;;;;;11.52;92.68;101494.44;5028461;28;20025;-69
2022/09/12 04:43:57;;;;;;;19.42;11.57;;;;;;;11.53;92.73;101497.00;5028928;28;20032;-69
2022/09/12 04:46:24;;;;;;;18.75;8.13;;;;;;;11.58;92.63;101486.56;5027225;28;20028;-69
2022/09/12 04:48:50;;;;;;;27.13;10.80;;;;;;;11.53;92.66;101494.28;5027432;28;20033;-68
2022/09/12 04:51:19;;;;;;;14.32;8.73;;;;;;;11.30;93.42;101492.97;5022728;28;20025;-69
2022/09/12 04:53:51;;;;;;;25.17;10.02;;;;;;;11.38;93.55;101490.38;5026443;28;20030;-69
2022/09/12 04:56:18;;;;;;;24.50;11.68;;;;;;;11.44;93.21;101491.63;5023549;28;20119;-69
2022/09/12 04:58:43;;;;;;;14.38;8.70;;;;;;;11.50;92.70;101493.75;5031709;28;20029;-69
2022/09/12 05:01:14;;;;;;;16.17;8.85;;;;;;;11.57;92.35;101495.72;5031778;28;20041;-69
2022/09/12 05:03:44;;;;;;;16.37;10.67;;;;;;;11.63;91.95;101492.41;5032077;28;20028;-69
2022/09/12 05:06:18;;;;;;;12.80;8.43;;;;;;;11.61;91.67;101491.72;5030867;28;20287;-69
2022/09/12 05:08:44;;;;;;;15.45;8.90;;;;;;;11.66;91.80;101493.94;5032543;28;20039;-69
2022/09/12 05:11:14;;;;;;;21.73;11.43;;;;;;;11.59;92.77;101504.53;5031048;28;20022;-69
2022/09/12 05:13:39;;;;;;;20.40;12.85;;;;;;;11.44;94.55;101500.63;5031012;28;20079;-69
2022/09/12 05:16:06;;;;;;;20.98;12.15;;;;;;;11.60;94.42;101489.97;5031887;28;20413;-69
2022/09/12 05:18:33;;;;;;;20.10;12.15;;;;;;;11.74;93.76;101495.94;5031746;28;20041;-69
2022/09/12 05:20:59;;;;;;;21.88;10.38;;;;;;;11.62;92.80;101498.84;5031656;28;20018;-69
2022/09/12 05:23:26;;;;;;;15.30;10.32;;;;;;;11.51;92.76;101490.88;5030084;28;20022;-69
2022/09/12 05:25:53;;;;;;;16.67;10.15;;;;;;;11.60;93.41;101500.81;5031282;28;20065;-69
2022/09/12 05:28:20;;;;;;;15.23;8.68;;;;;;;11.56;93.10;101494.00;5029954;28;20076;-69
2022/09/12 05:30:45;;;;;;;18.17;11.32;;;;;;;11.59;93.63;101488.25;5030094;28;20040;-69
2022/09/12 05:33:11;;;;;;;18.33;8.82;;;;;;;11.73;92.71;101483.34;5031183;28;20018;-69
2022/09/12 05:35:37;;;;;;;21.90;9.27;;;;;;;11.87;92.36;101491.03;5029856;28;20021;-69
2022/09/12 05:38:23;;;;;;;10.73;7.75;;;;;;;11.95;92.04;101488.41;5030258;28;20095;-69
2022/09/12 05:40:50;;;;;;;12.07;7.97;;;;;;;11.98;91.76;101492.66;5030244;28;20120;-70
2022/09/12 05:43:15;;;;;;;14.43;9.07;;;;;;;12.05;92.29;101489.19;5029766;28;20029;-70
2022/09/12 05:45:41;;;;;;;22.88;7.95;;;;;;;12.06;93.22;101495.47;5029663;28;20060;-69
2022/09/12 05:48:06;;;;;;;18.42;10.10;;;;;;;12.11;94.24;101494.00;5029391;28;20375;-70
2022/09/12 05:50:32;;;;;;;16.20;9.55;;;;;;;12.21;94.87;101494.81;5030843;28;20025;-70
2022/09/12 05:52:57;;;;;;;12.45;9.02;;;;;;;12.33;94.77;101494.59;5030848;28;20021;-70
2022/09/12 05:55:23;;;;;;;13.98;8.38;;;;;;;12.32;94.93;101495.56;5030445;28;20029;-70
2022/09/12 05:57:49;;;;;;;17.50;11.38;;;;;;;12.42;94.92;101502.66;5029928;28;20025;-70
2022/09/12 06:00:15;;;;;;;18.00;8.98;;;;;;;12.19;95.88;101495.94;5030475;28;20072;-70
2022/09/12 06:02:41;;;;;;;15.00;9.20;;;;;;;12.28;97.07;101499.63;5029755;28;20068;-70
2022/09/12 06:05:06;;;;;;;16.45;9.35;;;;;;;12.45;96.19;101507.78;5024824;28;20097;-70
2022/09/12 06:07:32;;;;;;;13.60;7.60;;;;;;;12.67;95.18;101511.03;5028825;28;20032;-70
2022/09/12 06:10:00;;;;;;;14.30;7.70;;;;;;;12.59;94.14;101509.09;5030793;28;20033;-70
2022/09/12 06:12:28;;;;;;;25.48;10.73;;;;;;;12.69;95.89;101515.28;5029177;28;20112;-70
2022/09/12 06:14:54;;;;;;;13.70;10.10;;;;;;;12.67;96.76;101506.44;5021695;28;20048;-70
2022/09/12 06:17:19;;;;;;;16.95;11.27;;;;;;;12.88;96.70;101502.53;5040022;28;20139;-70
2022/09/12 06:19:44;;;;;;;16.95;11.13;;;;;;;13.06;96.23;101511.53;5022438;28;20116;-70
2022/09/12 06:22:10;;;;;;;16.30;12.68;;;;;;;13.03;96.79;101500.94;5022518;28;20021;-70
2022/09/12 06:24:35;;;;;;;24.55;13.07;;;;;;;13.07;97.21;101505.06;5020630;28;20026;-70
2022/09/12 06:27:01;;;;;;;22.70;15.40;;;;;;;13.03;97.63;101506.38;5026604;28;20025;-70
2022/09/12 06:29:27;;;;;;;20.92;14.63;;;;;;;13.16;97.86;101511.41;5025934;28;20021;-71
2022/09/12 06:31:52;;;;;;;23.80;15.35;;;;;;;13.20;97.68;101513.69;5029462;28;20198;-70
2022/09/12 06:34:18;;;;;;;20.88;14.88;;;;;;;13.37;97.78;101508.38;5030950;28;20028;-73
2022/09/12 06:36:48;;;;;;;19.38;13.57;;;;;;;13.51;96.61;101505.03;5031278;28;20390;-73
2022/09/12 06:39:18;;;;;;;19.00;14.38;;;;;;;13.65;96.91;101512.59;5028399;28;20037;-73
2022/09/12 06:41:45;;;;;;;20.05;14.48;;;;;;;13.67;96.79;101505.09;5026028;28;20013;-72
2022/09/12 06:44:14;;;;;;;21.15;14.18;;;;;;;13.65;97.31;101507.16;5020621;28;20029;-72
2022/09/12 06:46:39;;;;;;;16.13;13.32;;;;;;;13.78;96.86;101512.13;5028389;28;20025;-73
2022/09/12 06:49:05;;;;;;;22.92;12.80;;;;;;;13.95;96.66;101499.44;5029306;28;20017;-73
2022/09/12 06:51:30;;;;;;;20.77;13.25;;;;;;;14.13;96.10;101500.16;5027823;28;20053;-73
2022/09/12 06:53:57;;;;;;;14.27;12.10;;;;;;;14.35;95.12;101496.84;5028437;28;20063;-73
2022/09/12 06:56:25;;;;;;;18.63;13.10;;;;;;;14.34;95.18;101492.41;5028765;28;20033;-72
2022/09/12 06:58:51;;;;;;;16.10;11.88;;;;;;;14.29;95.72;101494.78;5017210;28;20525;-72
2022/09/12 07:01:35;;;;;;;19.33;10.77;;;;;;;14.46;95.26;101497.50;5018976;28;20021;-73
2022/09/12 07:04:02;;;;;;;17.25;10.98;;;;;;;14.56;94.84;101495.53;5010799;28;20035;-72
2022/09/12 07:06:34;;;;;;;12.07;10.73;;;;;;;14.72;94.27;101500.13;5017762;28;20045;-73
2022/09/12 07:09:01;;;;;;;16.40;10.70;;;;;;;14.84;94.29;101493.31;5022451;28;20091;-72
2022/09/12 07:11:32;;;;;;;13.52;10.20;;;;;;;15.06;93.16;101497.19;5022295;28;20032;-72
2022/09/12 07:14:00;;;;;;;14.75;10.90;;;;;;;15.00;93.28;101497.91;5022124;28;20037;-72
2022/09/12 07:16:25;;;;;;;13.65;10.98;;;;;;;15.08;92.77;101503.34;5021082;28;20017;-73
2022/09/12 07:18:52;;;;;;;11.98;10.57;;;;;;;15.02;92.92;101507.63;5020023;28;20030;-72
2022/09/12 07:21:18;;;;;;;11.82;9.85;;;;;;;15.18;92.32;101501.28;5022036;28;20032;-73
2022/09/12 07:23:44;;;;;;;13.57;8.90;;;;;;;15.23;91.57;101498.88;5023076;28;20104;-73
2022/09/12 07:26:11;;;;;;;13.75;8.93;;;;;;;15.29;91.35;101498.19;5017896;28;20032;-73
2022/09/12 07:28:37;;;;;;;12.55;9.07;;;;;;;15.42;91.20;101500.38;5022451;28;20027;-73
2022/09/12 07:31:07;;;;;;;11.77;8.68;;;;;;;15.61;90.48;101490.94;5019522;28;20033;-72
2022/09/12 07:33:33;;;;;;;10.35;8.68;;;;;;;15.73;89.91;101489.56;5020263;28;20021;-73
2022/09/12 07:36:03;;;;;;;13.95;8.35;;;;;;;15.82;89.60;101482.19;5018396;28;20021;-73
2022/09/12 07:38:29;;;;;;;10.32;7.97;;;;;;;15.85;89.58;101481.84;5019124;28;20052;-73
2022/09/12 07:40:56;;;;;;;11.52;7.50;;;;;;;16.05;88.41;101482.25;5019451;28;20043;-73
2022/09/12 07:43:21;;;;;;;10.50;7.47;;;;;;;15.97;88.29;101486.72;5020062;28;20498;-73
2022/09/12 07:45:47;;;;;;;8.82;7.18;;;;;;;16.42;87.39;101479.59;5017754;28;20114;-73
2022/09/12 07:48:12;;;;;;;11.27;7.45;;;;;;;16.64;86.23;101482.53;5018673;28;20125;-73
2022/09/12 07:50:38;;;;;;;11.32;7.55;;;;;;;16.69;84.95;101485.53;5021851;28;20108;-73
2022/09/12 07:53:04;;;;;;;8.15;7.00;;;;;;;16.57;85.60;101481.56;5022270;28;20013;-73
2022/09/12 07:55:30;;;;;;;9.25;7.40;;;;;;;16.55;84.88;101479.84;5020541;28;20109;-73
2022/09/12 07:57:55;;;;;;;8.85;7.50;;;;;;;16.48;84.53;101484.34;5020966;28;20029;-73
2022/09/12 08:00:20;;;;;;;11.50;7.25;;;;;;;16.65;83.75;101484.22;5019829;28;20036;-73
2022/09/12 08:02:52;;;;;;;7.75;6.35;;;;;;;16.73;84.32;101481.47;5022118;28;20075;-73
2022/09/12 08:05:22;;;;;;;7.22;6.15;;;;;;;17.12;83.05;101474.94;5013846;28;20017;-73
2022/09/12 08:07:48;;;;;;;6.68;5.43;;;;;;;17.26;82.17;101476.84;5020353;28;20067;-73
2022/09/12 08:10:15;;;;;;;10.38;5.85;;;;;;;17.38;81.31;101477.25;5021111;28;20025;-73
2022/09/12 08:12:40;;;;;;;8.77;6.43;;;;;;;17.20;81.56;101478.44;5022211;28;20025;-72
2022/09/12 08:15:06;;;;;;;8.57;6.15;;;;;;;17.36;81.52;101482.91;5022012;28;20037;-73
2022/09/12 08:17:31;;;;;;;8.60;5.07;;;;;;;17.72;80.19;101482.16;5020624;28;20029;-73
2022/09/12 08:19:56;;;;;;;11.85;4.97;;;;;;;18.16;78.65;101485.69;5022927;28;20014;-72
2022/09/12 08:22:22;;;;;;;5.85;4.38;;;;;;;18.20;78.21;101485.31;5022869;28;20021;-73
2022/09/12 08:24:48;;;;;;;5.40;3.83;;;;;;;18.34;77.46;101487.16;5016656;28;20104;-73
2022/09/12 08:27:14;;;;;;;9.50;4.45;;;;;;;18.63;75.98;101481.53;5020701;28;20017;-73
2022/09/12 08:29:40;;;;;;;5.25;4.13;;;;;;;18.66;75.11;101486.66;5022324;28;21081;-73
2022/09/12 08:32:06;;;;;;;5.65;3.72;;;;;;;18.47;75.89;101487.28;5025717;28;20021;-74
2022/09/12 08:34:31;;;;;;;10.80;4.10;;;;;;;18.97;74.19;101488.19;5026230;28;20013;-72
2022/09/12 08:36:57;;;;;;;6.88;3.95;;;;;;;18.74;74.31;101487.56;5025168;28;20021;-73
2022/09/12 08:39:23;;;;;;;8.25;4.18;;;;;;;18.61;74.46;101489.13;5026368;28;20470;-73
2022/09/12 08:42:00;;;;;;;5.03;4.30;;;;;;;18.72;74.19;101481.44;5025251;28;20025;-73
2022/09/12 08:44:50;;;;;;;6.70;4.82;;;;;;;19.28;73.18;101481.47;5026797;28;20064;-73
2022/09/12 08:47:21;;;;;;;7.00;4.40;;;;;;;19.18;72.07;101484.56;5020806;28;20072;-73
2022/09/12 08:50:14;;;;;;;11.43;5.50;;;;;;;19.22;71.81;101478.47;5025317;28;20025;-73
2022/09/12 08:52:43;;;;;;;7.43;4.00;;;;;;;19.27;71.49;101482.50;5021421;28;20016;-73
2022/09/12 08:55:35;;;;;;;7.10;4.22;;;;;;;19.33;72.01;101481.72;5025156;28;20021;-73
2022/09/12 08:58:10;;;;;;;6.75;4.15;;;;;;;19.52;71.16;101481.00;5023513;28;20025;-73
2022/09/12 09:00:58;;;;;;;5.60;3.97;;;;;;;19.83;70.28;101474.22;5025379;28;20032;-73
2022/09/12 09:03:51;;;;;;;10.18;4.22;;;;;;;19.88;70.56;101468.94;5025111;28;20022;-73
2022/09/12 09:06:40;;;;;;;4.85;3.30;;;;;;;20.05;69.19;101470.28;5027541;28;20048;-73
2022/09/12 09:09:27;;;;;;;9.05;4.47;;;;;;;19.90;69.38;101466.84;5026634;28;20052;-74
2022/09/12 09:12:12;;;;;;;6.28;3.53;;;;;;;19.88;68.67;101463.44;5024131;28;20049;-72
2022/09/12 09:15:13;;;;;;;7.22;3.97;;;;;;;19.73;70.07;101458.94;5023761;28;20037;-73
2022/09/12 09:17:49;;;;;;;5.75;4.20;;;;;;;19.65;70.34;101450.88;5021267;28;20023;-73
2022/09/12 09:20:24;;;;;;;18.55;3.70;;;;;;;20.25;68.92;101454.69;5027596;28;20116;-73
2022/09/12 09:23:11;;;;;;;7.45;3.72;;;;;;;20.31;66.47;101459.34;5025781;28;20501;-73
2022/09/12 09:25:46;;;;;;;6.05;3.00;;;;;;;20.31;66.80;101451.09;5027593;28;20014;-73
2022/09/12 09:28:34;;;;;;;13.75;4.28;;;;;;;20.62;65.47;101449.69;5027003;28;20021;-73
2022/09/12 09:31:00;;;;;;;5.05;3.55;;;;;;;20.70;65.13;101441.22;5025820;28;20081;-73
2022/09/12 09:33:33;;;;;;;8.18;3.40;;;;;;;20.57;66.31;101446.72;5026305;28;20037;-73
2022/09/12 09:36:12;;;;;;;5.30;2.88;;;;;;;20.37;65.64;101445.81;5024482;28;20032;-72
2022/09/12 09:38:42;;;;;;;7.72;3.38;;;;;;;20.51;65.52;101442.06;5026234;28;20093;-73
2022/09/12 09:41:44;;;;;;;5.57;2.92;;;;;;;20.71;65.94;101440.16;5024485;28;20045;-73
2022/09/12 09:44:10;;;;;;;14.57;3.20;;;;;;;21.33;64.96;101441.63;5026295;28;20057;-73
2022/09/12 09:46:35;;;;;;;10.45;3.15;;;;;;;21.47;63.39;101436.94;5024637;28;20056;-74
2022/09/12 09:49:02;;;;;;;5.03;2.15;;;;;;;20.89;63.92;101433.19;5026832;28;20021;-73
2022/09/12 09:51:36;;;;;;;6.85;2.80;;;;;;;20.91;63.41;101431.06;5024429;28;20021;-73
2022/09/12 09:54:42;;;;;;;3.50;2.50;;;;;;;21.23;63.33;101441.19;5025653;28;20309;-73
2022/09/12 09:57:35;;;;;;;3.75;2.65;;;;;;;20.90;64.14;101434.88;5022712;28;20045;-74
2022/09/12 10:00:31;;;;;;;7.80;2.65;;;;;;;20.82;64.02;101434.03;5017184;28;20033;-74
2022/09/12 10:03:24;;;;;;;5.53;2.65;;;;;;;20.91;64.01;101431.91;5017728;28;20029;-73
2022/09/12 10:05:58;;;;;;;12.50;2.05;;;;;;;20.80;63.53;101430.66;5022449;28;20025;-73
2022/09/12 10:08:29;;;;;;;3.08;2.10;;;;;;;20.81;64.57;101437.84;5039052;28;20041;-73
2022/09/12 10:10:59;;;;;;;2.53;2.08;;;;;;;21.12;63.69;101433.56;5023864;28;20040;-73
2022/09/12 10:13:40;;;;;;;4.20;2.65;;;;;;;21.46;63.51;101428.88;5021586;28;20102;-73
2022/09/12 10:16:18;;;;;;;5.55;2.88;;;;;;;21.51;62.25;101426.31;5022160;28;20052;-73
2022/09/12 10:18:43;;;;;;;3.70;2.13;;;;;;;21.49;61.97;101423.78;5023199;28;20017;-73
2022/09/12 10:21:20;;;;;;;2.65;2.05;;;;;;;21.64;62.10;101426.25;5020842;28;20021;-74
2022/09/12 10:23:50;;;;;;;2.92;2.33;;;;;;;21.73;61.61;101422.22;5019575;28;20041;-74
2022/09/12 10:26:18;;;;;;;3.67;1.92;;;;;;;21.99;60.75;101431.44;5022769;28;20108;-74
2022/09/12 10:28:49;;;;;;;6.82;2.28;;;;;;;21.95;59.36;101423.56;5022008;28;20071;-73
2022/09/12 10:31:27;;;;;;;10.30;2.17;;;;;;;21.28;60.07;101416.63;5019981;28;20021;-73
2022/09/12 10:33:56;;;;;;;4.70;2.40;;;;;;;21.90;59.04;101417.88;5022946;28;20043;-73
2022/09/12 10:36:23;;;;;;;4.13;2.25;;;;;;;22.12;58.75;101423.09;5023520;28;20026;-73
2022/09/12 10:38:52;;;;;;;6.95;2.33;;;;;;;21.86;59.98;101424.91;5022528;28;20041;-73
2022/09/12 10:41:19;;;;;;;5.93;2.63;;;;;;;22.63;58.18;101419.38;5018523;28;20025;-73
2022/09/12 10:43:45;;;;;;;3.45;2.60;;;;;;;22.27;59.36;101420.88;5023804;28;20049;-73
2022/09/12 10:46:13;;;;;;;3.78;2.42;;;;;;;21.94;60.85;101416.38;5021022;28;20064;-73
2022/09/12 10:48:38;;;;;;;7.35;2.70;;;;;;;21.79;59.14;101423.25;5020835;28;20033;-73
2022/09/12 10:51:04;;;;;;;5.22;2.97;;;;;;;22.21;59.48;101422.59;5022434;28;20025;-73
2022/09/12 10:53:42;;;;;;;5.13;2.80;;;;;;;22.05;60.23;101411.25;5020197;28;20025;-73
2022/09/12 10:56:21;;;;;;;5.75;2.55;;;;;;;22.37;60.20;101404.69;5020491;28;20029;-73
2022/09/12 10:59:18;;;;;;;5.63;2.53;;;;;;;22.52;60.17;101411.81;5022410;28;20029;-73
2022/09/12 11:01:47;;;;;;;3.50;2.15;;;;;;;22.31;59.54;101405.59;5020159;28;20044;-73
2022/09/12 11:04:45;;;;;;;4.28;1.95;;;;;;;21.84;58.86;101405.00;5023960;28;20025;-74
2022/09/12 11:07:39;;;;;;;3.65;2.38;;;;;;;21.84;59.02;101399.47;5021621;28;20062;-73
2022/09/12 11:10:20;;;;;;;4.07;2.38;;;;;;;22.27;59.24;101393.28;5015652;28;20025;-73
2022/09/12 11:13:15;;;;;;;5.75;2.20;;;;;;;22.08;59.27;101394.25;5021815;28;20025;-74
2022/09/12 11:16:04;;;;;;;3.60;2.55;;;;;;;21.95;59.64;101389.66;5020871;28;20021;-73
2022/09/12 11:18:55;;;;;;;7.93;2.45;;;;;;;22.23;60.05;101389.28;5021686;28;20047;-74
2022/09/12 11:21:28;;;;;;;6.65;2.25;;;;;;;22.70;59.25;101392.53;5021434;28;20017;-74
2022/09/12 11:24:13;;;;;;;4.10;1.85;;;;;;;22.25;57.85;101389.94;5023386;28;20039;-74
2022/09/12 11:27:00;;;;;;;5.03;2.75;;;;;;;22.59;57.28;101402.41;5018040;28;20025;-74
2022/09/12 11:29:45;;;;;;;2.03;1.83;;;;;;;22.74;57.28;101388.25;5021524;28;20032;-73
2022/09/12 11:32:35;;;;;;;4.82;1.90;;;;;;;22.62;57.41;101387.28;5022369;28;20041;-73
2022/09/12 11:35:18;;;;;;;5.30;2.03;;;;;;;22.88;56.81;101384.31;5019518;28;20068;-74
2022/09/12 11:38:11;;;;;;;5.38;2.33;;;;;;;22.78;57.47;101385.88;5020670;28;20026;-74
2022/09/12 11:40:54;;;;;;;2.47;1.95;;;;;;;22.95;56.93;101384.25;5019655;28;20028;-74